Poseidon — SVA6091 — position and weather

sailwx.info

Track history (hours):
 
Tides and Currents Weather Stations Pressure Air Temp Water Temp Dewpoint Dewpoint Depression Visibility Wind Speed Wind Dir Waves Ship Positions

Poseidon

Last reported at 2018-Jun-20 05:17 UTC. Time now 2018-Jun-20 05:51 UTC.
Position N 37°57' E 023°37'.

Length 35 m; draft 3.5 m.

Type: Tanker. MMSI: 239869900.

Date/timePositionNaut miles runAvg speedWind from/ knotsBaromVisibWave heightAir tempDewpointWater temp
2018-Jun-20 05:17N 37°57' E 023°37'0 0.0
2018-Jun-18 08:38N 37°57' E 023°37'0 0.0
2018-Jun-18 08:30N 37°57' E 023°37'0 0.0
2018-Jun-18 07:59N 37°57' E 023°37'3 6.7
2018-Jun-18 07:31N 37°55' E 023°34'4 8.9
2018-Jun-18 07:00N 37°51' E 023°32'0 0.9
2018-Jun-18 06:30N 37°50' E 023°32'0 0.1
2018-Jun-18 06:00N 37°51' E 023°32'4 7.8
2018-Jun-18 05:30N 37°54' E 023°33'4 8.3
2018-Jun-18 05:00N 37°57' E 023°37'0 0.1
2018-Jun-18 04:30N 37°57' E 023°37'  
2018-Jun-14 19:11N 37°57' E 023°37'1 2.8
2018-Jun-14 19:00N 37°57' E 023°36'4 8.8
2018-Jun-14 18:30N 37°54' E 023°33'4 7.4
2018-Jun-14 18:00N 37°51' E 023°30'0 0.0
2018-Jun-14 17:30N 37°51' E 023°30'1 2.8
2018-Jun-14 17:00N 37°52' E 023°30'0 0.0
2018-Jun-14 16:30N 37°52' E 023°30'0 0.1
2018-Jun-14 16:00N 37°52' E 023°30'0 0.1
2018-Jun-14 15:30N 37°52' E 023°30'1 3.0
2018-Jun-14 15:00N 37°53' E 023°32'4 8.6
2018-Jun-14 14:30N 37°56' E 023°35'2 0.3
2018-Jun-14 09:08N 37°57' E 023°37'1 0.5
2018-Jun-14 08:05N 37°57' E 023°36'1 8.7
2018-Jun-14 08:00N 37°57' E 023°35'4 7.7
2018-Jun-14 07:30N 37°53' E 023°34'1 1.8
2018-Jun-14 07:00N 37°52' E 023°33'0 0.1
2018-Jun-14 06:30N 37°52' E 023°33'0 0.0
2018-Jun-14 06:00N 37°52' E 023°33'3 6.5
2018-Jun-14 05:30N 37°55' E 023°35'3 0.1
2018-Jun-12 08:21N 37°57' E 023°37'2 5.4
2018-Jun-12 08:00N 37°56' E 023°35'4 8.6
2018-Jun-12 07:30N 37°52' E 023°33'0 0.7
2018-Jun-12 07:00N 37°52' E 023°33'0 0.4
2018-Jun-12 06:30N 37°52' E 023°33'4 8.9
2018-Jun-12 06:00N 37°56' E 023°35'2 3.8
2018-Jun-12 05:30N 37°57' E 023°37'0 0.0
2018-Jun-10 09:10N 37°57' E 023°37'1 3.4
2018-Jun-10 09:00N 37°57' E 023°36'4 8.5
2018-Jun-10 08:30N 37°54' E 023°33'0 0.1
2018-Jun-10 08:00N 37°54' E 023°33'0 0.0
2018-Jun-10 07:30N 37°54' E 023°33'3 5.1
2018-Jun-10 07:00N 37°56' E 023°34'4 7.1
2018-Jun-10 06:30N 37°60' E 023°33'2 3.8
2018-Jun-10 06:00N 38°01' E 023°33'0 0.1
2018-Jun-10 05:30N 38°01' E 023°33'  
Track history (hours):
 
Tides and Currents Weather Stations Pressure Air Temp Water Temp Dewpoint Dewpoint Depression Visibility Wind Speed Wind Dir Waves Ship Positions

Poseidon

Last reported at 2018-Jun-20 05:17 UTC. Time now 2018-Jun-20 05:51 UTC.
Position N 37°57' E 023°37'.

Length 35 m; draft 3.5 m.

Type: Tanker. MMSI: 239869900.

Date/timePositionNaut miles runAvg speedWind from/ knotsBaromVisibWave heightAir tempDewpointWater temp
2018-Jun-20 05:17N 37°57' E 023°37'0 0.0
2018-Jun-18 08:38N 37°57' E 023°37'0 0.0
2018-Jun-18 08:30N 37°57' E 023°37'0 0.0
2018-Jun-18 07:59N 37°57' E 023°37'3 6.7
2018-Jun-18 07:31N 37°55' E 023°34'4 8.9
2018-Jun-18 07:00N 37°51' E 023°32'0 0.9
2018-Jun-18 06:30N 37°50' E 023°32'0 0.1
2018-Jun-18 06:00N 37°51' E 023°32'4 7.8
2018-Jun-18 05:30N 37°54' E 023°33'4 8.3
2018-Jun-18 05:00N 37°57' E 023°37'0 0.1
2018-Jun-18 04:30N 37°57' E 023°37'  
2018-Jun-14 19:11N 37°57' E 023°37'1 2.8
2018-Jun-14 19:00N 37°57' E 023°36'4 8.8
2018-Jun-14 18:30N 37°54' E 023°33'4 7.4
2018-Jun-14 18:00N 37°51' E 023°30'0 0.0
2018-Jun-14 17:30N 37°51' E 023°30'1 2.8
2018-Jun-14 17:00N 37°52' E 023°30'0 0.0
2018-Jun-14 16:30N 37°52' E 023°30'0 0.1
2018-Jun-14 16:00N 37°52' E 023°30'0 0.1
2018-Jun-14 15:30N 37°52' E 023°30'1 3.0
2018-Jun-14 15:00N 37°53' E 023°32'4 8.6
2018-Jun-14 14:30N 37°56' E 023°35'2 0.3
2018-Jun-14 09:08N 37°57' E 023°37'1 0.5
2018-Jun-14 08:05N 37°57' E 023°36'1 8.7
2018-Jun-14 08:00N 37°57' E 023°35'4 7.7
2018-Jun-14 07:30N 37°53' E 023°34'1 1.8
2018-Jun-14 07:00N 37°52' E 023°33'0 0.1
2018-Jun-14 06:30N 37°52' E 023°33'0 0.0
2018-Jun-14 06:00N 37°52' E 023°33'3 6.5
2018-Jun-14 05:30N 37°55' E 023°35'3 0.1
2018-Jun-12 08:21N 37°57' E 023°37'2 5.4
2018-Jun-12 08:00N 37°56' E 023°35'4 8.6
2018-Jun-12 07:30N 37°52' E 023°33'0 0.7
2018-Jun-12 07:00N 37°52' E 023°33'0 0.4
2018-Jun-12 06:30N 37°52' E 023°33'4 8.9
2018-Jun-12 06:00N 37°56' E 023°35'2 3.8
2018-Jun-12 05:30N 37°57' E 023°37'0 0.0
2018-Jun-10 09:10N 37°57' E 023°37'1 3.4
2018-Jun-10 09:00N 37°57' E 023°36'4 8.5
2018-Jun-10 08:30N 37°54' E 023°33'0 0.1
2018-Jun-10 08:00N 37°54' E 023°33'0 0.0
2018-Jun-10 07:30N 37°54' E 023°33'3 5.1
2018-Jun-10 07:00N 37°56' E 023°34'4 7.1
2018-Jun-10 06:30N 37°60' E 023°33'2 3.8
2018-Jun-10 06:00N 38°01' E 023°33'0 0.1
2018-Jun-10 05:30N 38°01' E 023°33'  

Dump ship's entire track history